sensor_id;sensor_type;location;lat;lon;timestamp;pressure;altitude;pressure_sealevel;temperature
75273;BMP280;63869;52.344;16.928;2023-02-26T00:01:30;99893.09;;;3.17
75273;BMP280;63869;52.344;16.928;2023-02-26T00:03:58;99894.22;;;3.16
75273;BMP280;63869;52.344;16.928;2023-02-26T00:06:25;99898.31;;;3.14
75273;BMP280;63869;52.344;16.928;2023-02-26T00:08:51;99908.13;;;3.13
75273;BMP280;63869;52.344;16.928;2023-02-26T00:11:17;99897.91;;;3.08
75273;BMP280;63869;52.344;16.928;2023-02-26T00:13:43;99909.63;;;3.11
75273;BMP280;63869;52.344;16.928;2023-02-26T00:18:53;99916.75;;;3.03
75273;BMP280;63869;52.344;16.928;2023-02-26T00:21:20;99912.16;;;2.93
75273;BMP280;63869;52.344;16.928;2023-02-26T00:23:46;99925.34;;;2.93
75273;BMP280;63869;52.344;16.928;2023-02-26T00:26:11;99923.06;;;2.88
75273;BMP280;63869;52.344;16.928;2023-02-26T00:28:37;99930.97;;;2.88
75273;BMP280;63869;52.344;16.928;2023-02-26T00:31:03;99929.78;;;2.82
75273;BMP280;63869;52.344;16.928;2023-02-26T00:33:28;99939.19;;;2.83
75273;BMP280;63869;52.344;16.928;2023-02-26T00:36:23;99935.00;;;2.78
75273;BMP280;63869;52.344;16.928;2023-02-26T00:39:05;99950.09;;;2.78
75273;BMP280;63869;52.344;16.928;2023-02-26T00:41:31;99945.16;;;2.72
75273;BMP280;63869;52.344;16.928;2023-02-26T00:43:57;99942.44;;;2.65
75273;BMP280;63869;52.344;16.928;2023-02-26T00:46:43;99957.56;;;2.68
75273;BMP280;63869;52.344;16.928;2023-02-26T00:52:02;99951.09;;;2.62
75273;BMP280;63869;52.344;16.928;2023-02-26T00:54:29;99957.13;;;2.63
75273;BMP280;63869;52.344;16.928;2023-02-26T00:56:56;99961.28;;;2.67
75273;BMP280;63869;52.344;16.928;2023-02-26T00:59:22;99965.88;;;2.70
75273;BMP280;63869;52.344;16.928;2023-02-26T01:01:48;99965.53;;;2.75
75273;BMP280;63869;52.344;16.928;2023-02-26T01:04:16;99962.53;;;2.77
75273;BMP280;63869;52.344;16.928;2023-02-26T01:06:45;99960.31;;;2.83
75273;BMP280;63869;52.344;16.928;2023-02-26T01:11:58;99961.94;;;2.98
75273;BMP280;63869;52.344;16.928;2023-02-26T01:14:27;99956.66;;;2.98
75273;BMP280;63869;52.344;16.928;2023-02-26T01:19:34;99975.59;;;3.03
75273;BMP280;63869;52.344;16.928;2023-02-26T01:22:09;99967.22;;;2.98
75273;BMP280;63869;52.344;16.928;2023-02-26T01:24:37;99972.50;;;2.94
75273;BMP280;63869;52.344;16.928;2023-02-26T01:27:03;99973.59;;;2.90
75273;BMP280;63869;52.344;16.928;2023-02-26T01:29:28;99982.25;;;2.87
75273;BMP280;63869;52.344;16.928;2023-02-26T01:34:35;99997.59;;;2.78
75273;BMP280;63869;52.344;16.928;2023-02-26T01:37:20;99997.19;;;2.75
75273;BMP280;63869;52.344;16.928;2023-02-26T01:42:21;99998.59;;;2.62
75273;BMP280;63869;52.344;16.928;2023-02-26T01:45:02;100003.06;;;2.58
75273;BMP280;63869;52.344;16.928;2023-02-26T01:47:42;100014.38;;;2.59
75273;BMP280;63869;52.344;16.928;2023-02-26T01:50:21;100011.72;;;2.55
75273;BMP280;63869;52.344;16.928;2023-02-26T01:55:19;100022.28;;;2.59
75273;BMP280;63869;52.344;16.928;2023-02-26T01:57:45;100025.69;;;2.59
75273;BMP280;63869;52.344;16.928;2023-02-26T02:00:11;100032.50;;;2.60
75273;BMP280;63869;52.344;16.928;2023-02-26T02:02:37;100035.53;;;2.62
75273;BMP280;63869;52.344;16.928;2023-02-26T02:05:07;100033.25;;;2.61
75273;BMP280;63869;52.344;16.928;2023-02-26T02:07:35;100036.72;;;2.68
75273;BMP280;63869;52.344;16.928;2023-02-26T02:10:00;100038.63;;;2.71
75273;BMP280;63869;52.344;16.928;2023-02-26T02:15:39;100051.50;;;2.76
75273;BMP280;63869;52.344;16.928;2023-02-26T02:32:17;100060.38;;;2.61
75273;BMP280;63869;52.344;16.928;2023-02-26T02:34:47;100062.63;;;2.59
75273;BMP280;63869;52.344;16.928;2023-02-26T02:37:18;100072.00;;;2.53
75273;BMP280;63869;52.344;16.928;2023-02-26T02:45:21;100077.94;;;2.50
75273;BMP280;63869;52.344;16.928;2023-02-26T02:47:53;100077.50;;;2.44
75273;BMP280;63869;52.344;16.928;2023-02-26T02:50:26;100088.41;;;2.43
75273;BMP280;63869;52.344;16.928;2023-02-26T02:52:57;100086.09;;;2.38
75273;BMP280;63869;52.344;16.928;2023-02-26T02:55:36;100091.38;;;2.38
75273;BMP280;63869;52.344;16.928;2023-02-26T02:58:07;100093.91;;;2.31
75273;BMP280;63869;52.344;16.928;2023-02-26T03:00:37;100093.13;;;2.30
75273;BMP280;63869;52.344;16.928;2023-02-26T03:03:15;100108.22;;;2.30
75273;BMP280;63869;52.344;16.928;2023-02-26T03:05:42;100115.34;;;2.26
75273;BMP280;63869;52.344;16.928;2023-02-26T03:08:11;100116.47;;;2.25
75273;BMP280;63869;52.344;16.928;2023-02-26T03:10:36;100120.13;;;2.20
75273;BMP280;63869;52.344;16.928;2023-02-26T03:13:02;100125.41;;;2.20
75273;BMP280;63869;52.344;16.928;2023-02-26T03:15:36;100128.41;;;2.19
75273;BMP280;63869;52.344;16.928;2023-02-26T03:18:20;100132.16;;;2.18
75273;BMP280;63869;52.344;16.928;2023-02-26T03:23:33;100137.34;;;2.10
75273;BMP280;63869;52.344;16.928;2023-02-26T03:26:10;100141.50;;;2.11
75273;BMP280;63869;52.344;16.928;2023-02-26T03:28:55;100153.16;;;2.10
75273;BMP280;63869;52.344;16.928;2023-02-26T03:31:30;100148.19;;;2.05
75273;BMP280;63869;52.344;16.928;2023-02-26T03:34:00;100142.38;;;1.96
75273;BMP280;63869;52.344;16.928;2023-02-26T03:36:48;100157.53;;;2.03
75273;BMP280;63869;52.344;16.928;2023-02-26T03:39:20;100164.28;;;2.00
75273;BMP280;63869;52.344;16.928;2023-02-26T03:42:02;100169.53;;;2.00
75273;BMP280;63869;52.344;16.928;2023-02-26T03:44:53;100161.94;;;1.95
75273;BMP280;63869;52.344;16.928;2023-02-26T03:47:21;100175.53;;;1.97
75273;BMP280;63869;52.344;16.928;2023-02-26T03:49:54;100170.56;;;1.92
75273;BMP280;63869;52.344;16.928;2023-02-26T03:52:22;100172.44;;;1.92
75273;BMP280;63869;52.344;16.928;2023-02-26T03:54:54;100175.47;;;1.94
75273;BMP280;63869;52.344;16.928;2023-02-26T03:57:20;100186.72;;;1.91
75273;BMP280;63869;52.344;16.928;2023-02-26T03:59:46;100191.69;;;1.96
75273;BMP280;63869;52.344;16.928;2023-02-26T04:02:15;100187.88;;;1.93
75273;BMP280;63869;52.344;16.928;2023-02-26T04:04:49;100203.00;;;1.96
75273;BMP280;63869;52.344;16.928;2023-02-26T04:07:16;100204.09;;;1.95
75273;BMP280;63869;52.344;16.928;2023-02-26T04:09:44;100212.78;;;1.96
75273;BMP280;63869;52.344;16.928;2023-02-26T04:12:10;100211.59;;;1.93
75273;BMP280;63869;52.344;16.928;2023-02-26T04:14:36;100213.13;;;1.94
75273;BMP280;63869;52.344;16.928;2023-02-26T04:17:01;100220.69;;;1.96
75273;BMP280;63869;52.344;16.928;2023-02-26T04:19:26;100218.34;;;1.91
75273;BMP280;63869;52.344;16.928;2023-02-26T04:21:52;100224.44;;;1.95
75273;BMP280;63869;52.344;16.928;2023-02-26T04:24:18;100229.66;;;1.91
75273;BMP280;63869;52.344;16.928;2023-02-26T04:26:43;100230.47;;;1.95
75273;BMP280;63869;52.344;16.928;2023-02-26T04:29:08;100232.69;;;1.93
75273;BMP280;63869;52.344;16.928;2023-02-26T04:31:34;100222.41;;;1.88
75273;BMP280;63869;52.344;16.928;2023-02-26T04:33:59;100234.91;;;1.91
75273;BMP280;63869;52.344;16.928;2023-02-26T04:36:24;100236.34;;;1.89
75273;BMP280;63869;52.344;16.928;2023-02-26T04:38:50;100238.66;;;1.90
75273;BMP280;63869;52.344;16.928;2023-02-26T04:41:15;100248.44;;;1.90
75273;BMP280;63869;52.344;16.928;2023-02-26T04:43:40;100244.56;;;1.83
75273;BMP280;63869;52.344;16.928;2023-02-26T04:46:06;100242.72;;;1.88
75273;BMP280;63869;52.344;16.928;2023-02-26T04:48:31;100241.59;;;1.85
75273;BMP280;63869;52.344;16.928;2023-02-26T04:50:56;100257.53;;;1.92
75273;BMP280;63869;52.344;16.928;2023-02-26T04:53:21;100248.75;;;1.88
75273;BMP280;63869;52.344;16.928;2023-02-26T04:55:48;100263.19;;;1.94
75273;BMP280;63869;52.344;16.928;2023-02-26T04:58:13;100264.31;;;1.93
75273;BMP280;63869;52.344;16.928;2023-02-26T05:00:39;100264.78;;;1.99
75273;BMP280;63869;52.344;16.928;2023-02-26T05:03:05;100271.22;;;2.01
75273;BMP280;63869;52.344;16.928;2023-02-26T05:05:31;100286.34;;;2.04
75273;BMP280;63869;52.344;16.928;2023-02-26T05:07:56;100275.47;;;2.06
75273;BMP280;63869;52.344;16.928;2023-02-26T05:10:22;100275.53;;;2.09
75273;BMP280;63869;52.344;16.928;2023-02-26T05:12:47;100277.88;;;2.14
75273;BMP280;63869;52.344;16.928;2023-02-26T05:15:13;100290.47;;;2.25
75273;BMP280;63869;52.344;16.928;2023-02-26T05:17:38;100297.34;;;2.29
75273;BMP280;63869;52.344;16.928;2023-02-26T05:20:05;100300.41;;;2.35
75273;BMP280;63869;52.344;16.928;2023-02-26T05:22:31;100297.84;;;2.38
75273;BMP280;63869;52.344;16.928;2023-02-26T05:24:56;100302.81;;;2.43
75273;BMP280;63869;52.344;16.928;2023-02-26T05:27:21;100308.16;;;2.47
75273;BMP280;63869;52.344;16.928;2023-02-26T05:29:46;100303.28;;;2.49
75273;BMP280;63869;52.344;16.928;2023-02-26T05:32:12;100315.44;;;2.54
75273;BMP280;63869;52.344;16.928;2023-02-26T05:34:37;100315.91;;;2.59
75273;BMP280;63869;52.344;16.928;2023-02-26T05:37:02;100329.16;;;2.66
75273;BMP280;63869;52.344;16.928;2023-02-26T05:39:28;100321.69;;;2.68
75273;BMP280;63869;52.344;16.928;2023-02-26T05:41:53;100336.09;;;2.74
75273;BMP280;63869;52.344;16.928;2023-02-26T05:44:20;100339.91;;;2.77
75273;BMP280;63869;52.344;16.928;2023-02-26T05:46:45;100342.19;;;2.79
75273;BMP280;63869;52.344;16.928;2023-02-26T05:49:11;100337.69;;;2.79
75273;BMP280;63869;52.344;16.928;2023-02-26T05:51:36;100355.53;;;2.86
75273;BMP280;63869;52.344;16.928;2023-02-26T05:54:02;100352.56;;;2.91
75273;BMP280;63869;52.344;16.928;2023-02-26T05:56:28;100361.66;;;2.93
75273;BMP280;63869;52.344;16.928;2023-02-26T05:58:53;100365.16;;;3.01
75273;BMP280;63869;52.344;16.928;2023-02-26T06:01:18;100368.97;;;3.03
75273;BMP280;63869;52.344;16.928;2023-02-26T06:03:44;100375.81;;;3.08
75273;BMP280;63869;52.344;16.928;2023-02-26T06:06:10;100376.22;;;3.10
75273;BMP280;63869;52.344;16.928;2023-02-26T06:08:36;100367.19;;;3.11
75273;BMP280;63869;52.344;16.928;2023-02-26T06:11:03;100374.41;;;3.14
75273;BMP280;63869;52.344;16.928;2023-02-26T06:13:28;100382.00;;;3.16
75273;BMP280;63869;52.344;16.928;2023-02-26T06:15:53;100392.66;;;3.23
75273;BMP280;63869;52.344;16.928;2023-02-26T06:18:18;100392.31;;;3.28
75273;BMP280;63869;52.344;16.928;2023-02-26T06:20:44;100390.38;;;3.25
75273;BMP280;63869;52.344;16.928;2023-02-26T06:23:09;100396.97;;;3.34
75273;BMP280;63869;52.344;16.928;2023-02-26T06:25:34;100409.09;;;3.39
75273;BMP280;63869;52.344;16.928;2023-02-26T06:27:59;100401.22;;;3.43
75273;BMP280;63869;52.344;16.928;2023-02-26T06:30:25;100404.66;;;3.47
75273;BMP280;63869;52.344;16.928;2023-02-26T06:32:50;100405.47;;;3.51
75273;BMP280;63869;52.344;16.928;2023-02-26T06:35:15;100417.25;;;3.57
75273;BMP280;63869;52.344;16.928;2023-02-26T06:37:41;100414.22;;;3.55
75273;BMP280;63869;52.344;16.928;2023-02-26T06:40:07;100423.97;;;3.24
75273;BMP280;63869;52.344;16.928;2023-02-26T06:42:35;100428.53;;;3.01
75273;BMP280;63869;52.344;16.928;2023-02-26T06:45:00;100437.50;;;2.73
75273;BMP280;63869;52.344;16.928;2023-02-26T06:47:26;100436.66;;;2.47
75273;BMP280;63869;52.344;16.928;2023-02-26T06:49:51;100448.88;;;2.16
75273;BMP280;63869;52.344;16.928;2023-02-26T06:52:16;100437.78;;;2.07
75273;BMP280;63869;52.344;16.928;2023-02-26T06:54:42;100449.44;;;1.87
75273;BMP280;63869;52.344;16.928;2023-02-26T06:57:07;100452.28;;;1.78
75273;BMP280;63869;52.344;16.928;2023-02-26T06:59:32;100455.00;;;1.66
75273;BMP280;63869;52.344;16.928;2023-02-26T07:01:58;100454.94;;;1.62
75273;BMP280;63869;52.344;16.928;2023-02-26T07:04:23;100459.16;;;1.67
75273;BMP280;63869;52.344;16.928;2023-02-26T07:06:49;100465.03;;;1.76
75273;BMP280;63869;52.344;16.928;2023-02-26T07:09:15;100465.16;;;1.83
75273;BMP280;63869;52.344;16.928;2023-02-26T07:11:40;100471.00;;;1.92
75273;BMP280;63869;52.344;16.928;2023-02-26T07:14:05;100475.06;;;2.05
75273;BMP280;63869;52.344;16.928;2023-02-26T07:16:31;100485.75;;;2.12
75273;BMP280;63869;52.344;16.928;2023-02-26T07:18:57;100471.72;;;2.08
75273;BMP280;63869;52.344;16.928;2023-02-26T07:21:23;100491.63;;;2.06
75273;BMP280;63869;52.344;16.928;2023-02-26T07:23:48;100490.44;;;2.03
75273;BMP280;63869;52.344;16.928;2023-02-26T07:26:14;100500.97;;;2.03
75273;BMP280;63869;52.344;16.928;2023-02-26T07:28:39;100503.94;;;2.02
75273;BMP280;63869;52.344;16.928;2023-02-26T07:31:04;100498.00;;;1.89
75273;BMP280;63869;52.344;16.928;2023-02-26T07:33:29;100503.53;;;2.00
75273;BMP280;63869;52.344;16.928;2023-02-26T07:35:56;100511.84;;;2.02
75273;BMP280;63869;52.344;16.928;2023-02-26T07:38:21;100512.63;;;2.02
75273;BMP280;63869;52.344;16.928;2023-02-26T07:40:47;100514.88;;;2.20
75273;BMP280;63869;52.344;16.928;2023-02-26T07:43:12;100508.50;;;2.21
75273;BMP280;63869;52.344;16.928;2023-02-26T07:45:38;100521.28;;;2.38
75273;BMP280;63869;52.344;16.928;2023-02-26T07:48:03;100534.25;;;2.47
75273;BMP280;63869;52.344;16.928;2023-02-26T07:50:28;100527.09;;;2.47
75273;BMP280;63869;52.344;16.928;2023-02-26T07:52:55;100538.09;;;2.68
75273;BMP280;63869;52.344;16.928;2023-02-26T07:55:21;100540.31;;;2.86
75273;BMP280;63869;52.344;16.928;2023-02-26T07:57:47;100535.78;;;2.86
75273;BMP280;63869;52.344;16.928;2023-02-26T08:00:13;100544.06;;;2.85
75273;BMP280;63869;52.344;16.928;2023-02-26T08:02:39;100553.31;;;2.98
75273;BMP280;63869;52.344;16.928;2023-02-26T08:05:06;100556.56;;;3.11
75273;BMP280;63869;52.344;16.928;2023-02-26T08:07:31;100560.78;;;3.15
75273;BMP280;63869;52.344;16.928;2023-02-26T08:09:57;100546.91;;;3.18
75273;BMP280;63869;52.344;16.928;2023-02-26T08:12:22;100563.84;;;3.40
75273;BMP280;63869;52.344;16.928;2023-02-26T08:14:47;100574.50;;;3.44
75273;BMP280;63869;52.344;16.928;2023-02-26T08:17:13;100570.63;;;3.37
75273;BMP280;63869;52.344;16.928;2023-02-26T08:19:38;100577.53;;;3.46
75273;BMP280;63869;52.344;16.928;2023-02-26T08:22:04;100586.09;;;3.62
75273;BMP280;63869;52.344;16.928;2023-02-26T08:24:29;100593.25;;;3.61
75273;BMP280;63869;52.344;16.928;2023-02-26T08:26:55;100589.44;;;3.59
75273;BMP280;63869;52.344;16.928;2023-02-26T08:29:21;100600.56;;;3.45
75273;BMP280;63869;52.344;16.928;2023-02-26T08:31:46;100602.44;;;3.45
75273;BMP280;63869;52.344;16.928;2023-02-26T08:34:12;100615.22;;;3.43
75273;BMP280;63869;52.344;16.928;2023-02-26T08:36:39;100605.78;;;3.42
75273;BMP280;63869;52.344;16.928;2023-02-26T08:39:04;100617.75;;;3.35
75273;BMP280;63869;52.344;16.928;2023-02-26T08:41:31;100626.41;;;3.13
75273;BMP280;63869;52.344;16.928;2023-02-26T08:43:58;100634.19;;;3.06
75273;BMP280;63869;52.344;16.928;2023-02-26T08:46:23;100632.53;;;2.98
75273;BMP280;63869;52.344;16.928;2023-02-26T08:48:49;100639.78;;;3.01
75273;BMP280;63869;52.344;16.928;2023-02-26T08:51:14;100640.00;;;2.92
75273;BMP280;63869;52.344;16.928;2023-02-26T08:53:39;100645.47;;;3.03
75273;BMP280;63869;52.344;16.928;2023-02-26T08:56:05;100638.44;;;3.11
75273;BMP280;63869;52.344;16.928;2023-02-26T08:58:31;100650.09;;;3.10
75273;BMP280;63869;52.344;16.928;2023-02-26T09:00:56;100644.41;;;3.07
75273;BMP280;63869;52.344;16.928;2023-02-26T09:03:21;100641.72;;;3.04
75273;BMP280;63869;52.344;16.928;2023-02-26T09:05:47;100647.81;;;3.08
75273;BMP280;63869;52.344;16.928;2023-02-26T09:08:12;100664.59;;;3.16
75273;BMP280;63869;52.344;16.928;2023-02-26T09:10:40;100664.00;;;3.26
75273;BMP280;63869;52.344;16.928;2023-02-26T09:13:06;100673.94;;;3.32
75273;BMP280;63869;52.344;16.928;2023-02-26T09:15:33;100678.25;;;3.41
75273;BMP280;63869;52.344;16.928;2023-02-26T09:17:59;100698.91;;;3.35
75273;BMP280;63869;52.344;16.928;2023-02-26T09:20:24;100699.03;;;3.42
75273;BMP280;63869;52.344;16.928;2023-02-26T09:22:50;100697.97;;;3.47
75273;BMP280;63869;52.344;16.928;2023-02-26T09:25:15;100693.09;;;3.29
75273;BMP280;63869;52.344;16.928;2023-02-26T09:27:40;100708.13;;;3.45
75273;BMP280;63869;52.344;16.928;2023-02-26T09:30:06;100715.53;;;3.58
75273;BMP280;63869;52.344;16.928;2023-02-26T09:32:32;100720.47;;;3.60
75273;BMP280;63869;52.344;16.928;2023-02-26T09:34:59;100721.88;;;3.54
75273;BMP280;63869;52.344;16.928;2023-02-26T09:37:24;100728.91;;;3.46
75273;BMP280;63869;52.344;16.928;2023-02-26T09:39:49;100730.13;;;3.49
75273;BMP280;63869;52.344;16.928;2023-02-26T09:45:12;100742.38;;;3.60
75273;BMP280;63869;52.344;16.928;2023-02-26T09:47:42;100749.97;;;3.62
75273;BMP280;63869;52.344;16.928;2023-02-26T09:50:21;100749.41;;;3.72
75273;BMP280;63869;52.344;16.928;2023-02-26T09:53:09;100759.59;;;3.93
75273;BMP280;63869;52.344;16.928;2023-02-26T09:55:43;100757.00;;;4.19
75273;BMP280;63869;52.344;16.928;2023-02-26T09:58:21;100767.13;;;4.37
75273;BMP280;63869;52.344;16.928;2023-02-26T10:00:59;100768.34;;;4.20
75273;BMP280;63869;52.344;16.928;2023-02-26T10:06:24;100776.59;;;4.15
75273;BMP280;63869;52.344;16.928;2023-02-26T10:14:22;100779.09;;;4.53
75273;BMP280;63869;52.344;16.928;2023-02-26T10:16:55;100775.53;;;4.69
75273;BMP280;63869;52.344;16.928;2023-02-26T10:19:28;100770.94;;;4.92
75273;BMP280;63869;52.344;16.928;2023-02-26T10:24:56;100774.31;;;4.89
75273;BMP280;63869;52.344;16.928;2023-02-26T10:27:35;100792.69;;;4.78
75273;BMP280;63869;52.344;16.928;2023-02-26T10:30:12;100788.97;;;4.83
75273;BMP280;63869;52.344;16.928;2023-02-26T10:33:11;100792.13;;;4.92
75273;BMP280;63869;52.344;16.928;2023-02-26T10:35:44;100796.41;;;5.04
75273;BMP280;63869;52.344;16.928;2023-02-26T10:38:15;100802.19;;;5.09
75273;BMP280;63869;52.344;16.928;2023-02-26T10:40:57;100809.75;;;5.11
75273;BMP280;63869;52.344;16.928;2023-02-26T10:43:48;100804.84;;;5.09
75273;BMP280;63869;52.344;16.928;2023-02-26T10:48:54;100820.63;;;5.02
75273;BMP280;63869;52.344;16.928;2023-02-26T10:51:31;100815.88;;;5.15
75273;BMP280;63869;52.344;16.928;2023-02-26T10:54:03;100819.47;;;5.29
75273;BMP280;63869;52.344;16.928;2023-02-26T10:56:31;100817.50;;;5.53
75273;BMP280;63869;52.344;16.928;2023-02-26T10:58:57;100825.28;;;5.39
75273;BMP280;63869;52.344;16.928;2023-02-26T11:01:24;100837.44;;;5.13
75273;BMP280;63869;52.344;16.928;2023-02-26T11:03:55;100828.97;;;5.04
75273;BMP280;63869;52.344;16.928;2023-02-26T11:06:44;100835.31;;;4.96
75273;BMP280;63869;52.344;16.928;2023-02-26T11:09:24;100843.72;;;4.75
75273;BMP280;63869;52.344;16.928;2023-02-26T11:14:18;100853.44;;;4.68
75273;BMP280;63869;52.344;16.928;2023-02-26T11:17:15;100841.63;;;4.61
75273;BMP280;63869;52.344;16.928;2023-02-26T11:19:47;100850.78;;;4.68
75273;BMP280;63869;52.344;16.928;2023-02-26T11:22:14;100852.53;;;4.83
75273;BMP280;63869;52.344;16.928;2023-02-26T11:24:45;100852.53;;;5.09
75273;BMP280;63869;52.344;16.928;2023-02-26T11:27:36;100848.78;;;5.44
75273;BMP280;63869;52.344;16.928;2023-02-26T11:30:18;100855.22;;;5.73
75273;BMP280;63869;52.344;16.928;2023-02-26T11:32:45;100851.06;;;5.79
75273;BMP280;63869;52.344;16.928;2023-02-26T11:35:14;100867.34;;;5.74
75273;BMP280;63869;52.344;16.928;2023-02-26T11:37:48;100864.16;;;5.61
75273;BMP280;63869;52.344;16.928;2023-02-26T11:42:49;100867.19;;;5.63
75273;BMP280;63869;52.344;16.928;2023-02-26T11:45:19;100863.97;;;5.80
75273;BMP280;63869;52.344;16.928;2023-02-26T11:47:46;100864.81;;;5.84
75273;BMP280;63869;52.344;16.928;2023-02-26T11:50:19;100866.59;;;5.77
75273;BMP280;63869;52.344;16.928;2023-02-26T11:52:55;100870.38;;;5.76
75273;BMP280;63869;52.344;16.928;2023-02-26T11:55:35;100882.69;;;5.57
75273;BMP280;63869;52.344;16.928;2023-02-26T11:58:00;100879.28;;;5.57
75273;BMP280;63869;52.344;16.928;2023-02-26T12:00:32;100887.25;;;5.60
75273;BMP280;63869;52.344;16.928;2023-02-26T12:03:01;100881.13;;;5.53
75273;BMP280;63869;52.344;16.928;2023-02-26T12:05:32;100886.66;;;5.41
75273;BMP280;63869;52.344;16.928;2023-02-26T12:07:58;100877.88;;;5.10
75273;BMP280;63869;52.344;16.928;2023-02-26T12:10:34;100901.94;;;4.98
75273;BMP280;63869;52.344;16.928;2023-02-26T12:13:20;100894.97;;;4.86
75273;BMP280;63869;52.344;16.928;2023-02-26T12:15:57;100908.13;;;4.83
75273;BMP280;63869;52.344;16.928;2023-02-26T12:18:36;100916.91;;;4.87
75273;BMP280;63869;52.344;16.928;2023-02-26T12:21:47;100913.91;;;4.88
75273;BMP280;63869;52.344;16.928;2023-02-26T12:24:40;100917.75;;;4.91
75273;BMP280;63869;52.344;16.928;2023-02-26T12:36:01;100931.75;;;4.46
75273;BMP280;63869;52.344;16.928;2023-02-26T12:41:47;100933.81;;;4.56
75273;BMP280;63869;52.344;16.928;2023-02-26T13:15:26;100953.94;;;5.32
75273;BMP280;63869;52.344;16.928;2023-02-26T13:20:24;100953.97;;;5.36
75273;BMP280;63869;52.344;16.928;2023-02-26T13:23:00;100960.38;;;5.58
75273;BMP280;63869;52.344;16.928;2023-02-26T13:25:43;100966.38;;;5.55
75273;BMP280;63869;52.344;16.928;2023-02-26T13:28:29;100966.63;;;5.46
75273;BMP280;63869;52.344;16.928;2023-02-26T13:31:02;100957.28;;;5.29
75273;BMP280;63869;52.344;16.928;2023-02-26T13:33:30;100972.06;;;5.30
75273;BMP280;63869;52.344;16.928;2023-02-26T13:35:56;100968.94;;;5.21
75273;BMP280;63869;52.344;16.928;2023-02-26T13:38:37;100977.78;;;5.06
75273;BMP280;63869;52.344;16.928;2023-02-26T13:41:14;100979.88;;;4.97
75273;BMP280;63869;52.344;16.928;2023-02-26T13:48:55;100979.41;;;4.69
75273;BMP280;63869;52.344;16.928;2023-02-26T13:51:45;100985.72;;;4.60
75273;BMP280;63869;52.344;16.928;2023-02-26T13:56:48;100993.19;;;4.78
75273;BMP280;63869;52.344;16.928;2023-02-26T13:59:30;100990.69;;;5.08
75273;BMP280;63869;52.344;16.928;2023-02-26T14:02:00;100986.91;;;5.61
75273;BMP280;63869;52.344;16.928;2023-02-26T14:04:31;100986.13;;;6.21
75273;BMP280;63869;52.344;16.928;2023-02-26T14:06:58;100979.59;;;6.48
75273;BMP280;63869;52.344;16.928;2023-02-26T14:17:37;100996.84;;;5.15
75273;BMP280;63869;52.344;16.928;2023-02-26T14:20:17;101017.91;;;5.05
75273;BMP280;63869;52.344;16.928;2023-02-26T14:22:47;101010.28;;;5.03
75273;BMP280;63869;52.344;16.928;2023-02-26T14:25:17;101022.28;;;4.97
75273;BMP280;63869;52.344;16.928;2023-02-26T14:27:45;101028.88;;;4.84
75273;BMP280;63869;52.344;16.928;2023-02-26T14:30:27;101030.28;;;4.78
75273;BMP280;63869;52.344;16.928;2023-02-26T14:35:27;101042.91;;;4.65
75273;BMP280;63869;52.344;16.928;2023-02-26T14:38:02;101044.91;;;4.72
75273;BMP280;63869;52.344;16.928;2023-02-26T14:40:37;101055.22;;;4.77
75273;BMP280;63869;52.344;16.928;2023-02-26T14:43:05;101053.34;;;4.77
75273;BMP280;63869;52.344;16.928;2023-02-26T14:45:35;101057.84;;;4.73
75273;BMP280;63869;52.344;16.928;2023-02-26T14:48:05;101052.59;;;4.57
75273;BMP280;63869;52.344;16.928;2023-02-26T14:51:06;101048.72;;;4.51
75273;BMP280;63869;52.344;16.928;2023-02-26T14:54:02;101057.75;;;4.50
75273;BMP280;63869;52.344;16.928;2023-02-26T14:56:53;101062.34;;;4.53
75273;BMP280;63869;52.344;16.928;2023-02-26T14:59:31;101072.44;;;4.67
75273;BMP280;63869;52.344;16.928;2023-02-26T15:07:34;101073.78;;;4.57
75273;BMP280;63869;52.344;16.928;2023-02-26T15:21:41;101074.63;;;4.42
75273;BMP280;63869;52.344;16.928;2023-02-26T15:24:11;101080.34;;;4.44
75273;BMP280;63869;52.344;16.928;2023-02-26T15:26:45;101082.72;;;4.49
75273;BMP280;63869;52.344;16.928;2023-02-26T15:29:13;101084.31;;;4.73
75273;BMP280;63869;52.344;16.928;2023-02-26T15:31:46;101094.28;;;5.03
75273;BMP280;63869;52.344;16.928;2023-02-26T15:34:15;101074.53;;;5.19
75273;BMP280;63869;52.344;16.928;2023-02-26T15:36:49;101094.09;;;5.57
75273;BMP280;63869;52.344;16.928;2023-02-26T15:39:15;101087.25;;;5.82
75273;BMP280;63869;52.344;16.928;2023-02-26T15:41:42;101089.72;;;5.98
75273;BMP280;63869;52.344;16.928;2023-02-26T15:44:10;101090.59;;;6.06
75273;BMP280;63869;52.344;16.928;2023-02-26T15:46:40;101095.19;;;6.09
75273;BMP280;63869;52.344;16.928;2023-02-26T15:49:10;101099.31;;;6.06
75273;BMP280;63869;52.344;16.928;2023-02-26T15:51:37;101105.75;;;6.02
75273;BMP280;63869;52.344;16.928;2023-02-26T15:54:05;101104.78;;;5.87
75273;BMP280;63869;52.344;16.928;2023-02-26T15:56:36;101104.97;;;5.52
75273;BMP280;63869;52.344;16.928;2023-02-26T15:59:07;101105.78;;;5.33
75273;BMP280;63869;52.344;16.928;2023-02-26T16:01:33;101113.44;;;5.15
75273;BMP280;63869;52.344;16.928;2023-02-26T16:04:04;101117.03;;;5.04
75273;BMP280;63869;52.344;16.928;2023-02-26T16:06:36;101113.69;;;4.87
75273;BMP280;63869;52.344;16.928;2023-02-26T16:09:04;101101.03;;;4.58
75273;BMP280;63869;52.344;16.928;2023-02-26T16:11:33;101108.94;;;4.39
75273;BMP280;63869;52.344;16.928;2023-02-26T16:14:00;101102.09;;;4.18
75273;BMP280;63869;52.344;16.928;2023-02-26T16:16:28;101126.75;;;4.22
75273;BMP280;63869;52.344;16.928;2023-02-26T16:18:57;101105.44;;;3.99
75273;BMP280;63869;52.344;16.928;2023-02-26T16:21:33;101131.56;;;4.01
75273;BMP280;63869;52.344;16.928;2023-02-26T16:24:03;101117.94;;;3.83
75273;BMP280;63869;52.344;16.928;2023-02-26T16:26:37;101147.69;;;3.96
75273;BMP280;63869;52.344;16.928;2023-02-26T16:29:11;101139.78;;;3.80
75273;BMP280;63869;52.344;16.928;2023-02-26T16:31:41;101124.91;;;3.60
75273;BMP280;63869;52.344;16.928;2023-02-26T16:36:53;101140.16;;;3.51
75273;BMP280;63869;52.344;16.928;2023-02-26T16:39:24;101139.13;;;3.39
75273;BMP280;63869;52.344;16.928;2023-02-26T16:42:35;101170.59;;;3.45